createdAt,value
2018-08-09T00:00:19.929Z,29.00
2018-08-09T00:02:48.329Z,29.00
2018-08-09T00:05:16.746Z,29.00
2018-08-09T00:07:45.150Z,29.00
2018-08-09T00:10:13.740Z,28.90
2018-08-09T00:12:42.154Z,29.00
2018-08-09T00:15:10.549Z,29.00
2018-08-09T00:17:38.971Z,29.00
2018-08-09T00:20:07.399Z,29.00
2018-08-09T00:22:35.796Z,28.90
2018-08-09T00:25:04.601Z,29.00
2018-08-09T00:27:33.029Z,29.00
2018-08-09T00:30:01.421Z,28.90
2018-08-09T00:32:29.816Z,29.00
2018-08-09T00:34:58.230Z,29.00
2018-08-09T00:37:26.635Z,29.00
2018-08-09T00:39:55.090Z,28.90
2018-08-09T00:42:23.496Z,29.00
2018-08-09T00:44:51.899Z,28.90
2018-08-09T00:47:20.349Z,28.90
2018-08-09T00:49:48.862Z,28.90
2018-08-09T00:52:17.295Z,28.90
2018-08-09T00:54:45.753Z,28.90
2018-08-09T00:57:14.193Z,28.90
2018-08-09T00:59:42.701Z,28.90
2018-08-09T01:02:11.149Z,28.90
2018-08-09T01:04:39.580Z,28.90
2018-08-09T01:07:08.030Z,28.90
2018-08-09T01:09:36.460Z,28.90
2018-08-09T01:12:04.893Z,28.90
2018-08-09T01:14:33.338Z,28.90
2018-08-09T01:17:08.343Z,28.90
2018-08-09T01:19:36.792Z,28.90
2018-08-09T01:22:05.393Z,28.90
2018-08-09T01:24:33.828Z,28.90
2018-08-09T01:27:11.893Z,28.90
2018-08-09T01:29:41.021Z,28.90
2018-08-09T01:32:09.459Z,28.90
2018-08-09T01:34:37.885Z,28.90
2018-08-09T01:37:06.538Z,28.90
2018-08-09T01:39:34.969Z,28.90
2018-08-09T01:42:14.804Z,28.80
2018-08-09T01:44:43.235Z,28.80
2018-08-09T01:47:11.672Z,28.90
2018-08-09T01:49:40.105Z,28.80
2018-08-09T01:52:08.574Z,28.90
2018-08-09T01:54:36.992Z,28.80
2018-08-09T01:57:05.437Z,28.80
2018-08-09T01:59:33.855Z,28.80
2018-08-09T02:02:07.309Z,28.80
2018-08-09T02:04:35.750Z,28.80
2018-08-09T02:09:55.167Z,28.80
2018-08-09T02:12:23.654Z,28.80
2018-08-09T02:14:52.095Z,28.80
2018-08-09T02:17:20.525Z,28.80
2018-08-09T02:19:48.954Z,28.80
2018-08-09T02:22:17.404Z,28.80
2018-08-09T02:24:45.844Z,28.80
2018-08-09T02:27:14.274Z,28.70
2018-08-09T02:29:42.790Z,28.80
2018-08-09T02:32:11.215Z,28.80
2018-08-09T02:34:39.851Z,28.70
2018-08-09T02:37:08.496Z,28.70
2018-08-09T02:39:36.957Z,28.80
2018-08-09T02:42:05.401Z,28.80
2018-08-09T02:44:33.979Z,28.70
2018-08-09T02:47:02.478Z,28.80
2018-08-09T02:49:30.909Z,28.80
2018-08-09T02:51:59.530Z,28.80
2018-08-09T02:54:27.938Z,28.70
2018-08-09T03:00:14.880Z,28.70
2018-08-09T03:02:43.348Z,28.70
2018-08-09T03:05:11.794Z,28.70
2018-08-09T03:07:40.238Z,28.70
2018-08-09T03:10:08.898Z,28.70
2018-08-09T03:12:37.328Z,28.70
2018-08-09T03:15:06.476Z,28.70
2018-08-09T03:17:34.944Z,28.70
2018-08-09T03:20:03.431Z,28.70
2018-08-09T03:22:31.860Z,28.70
2018-08-09T03:25:00.297Z,28.70
2018-08-09T03:27:28.732Z,28.70
2018-08-09T03:29:57.159Z,28.70
2018-08-09T03:32:25.717Z,28.70
2018-08-09T03:34:54.149Z,28.70
2018-08-09T03:37:22.588Z,28.70
2018-08-09T03:39:51.067Z,28.70
2018-08-09T03:42:19.513Z,28.70
2018-08-09T03:44:48.061Z,28.70
2018-08-09T03:47:16.499Z,28.60
2018-08-09T03:49:44.936Z,28.70
2018-08-09T03:52:13.368Z,28.70
2018-08-09T03:54:41.809Z,28.70
2018-08-09T03:57:16.861Z,28.70
2018-08-09T03:59:45.281Z,28.70
2018-08-09T04:02:13.710Z,28.60
2018-08-09T04:04:42.129Z,28.60
2018-08-09T04:07:10.706Z,28.60
2018-08-09T04:09:39.134Z,28.60
2018-08-09T04:12:07.597Z,28.60
2018-08-09T04:14:36.005Z,28.60
2018-08-09T04:17:09.572Z,28.60
2018-08-09T04:19:38.000Z,28.70
2018-08-09T04:22:06.456Z,28.60
2018-08-09T04:24:34.868Z,28.70
2018-08-09T04:27:03.286Z,28.60
2018-08-09T04:29:31.976Z,28.70
2018-08-09T04:32:00.402Z,28.60
2018-08-09T04:34:28.834Z,28.60
2018-08-09T04:37:17.295Z,28.60
2018-08-09T04:39:45.738Z,28.60
2018-08-09T04:42:14.182Z,28.60
2018-08-09T04:44:42.617Z,28.60
2018-08-09T04:47:16.714Z,28.60
2018-08-09T04:49:45.139Z,28.60
2018-08-09T04:52:13.571Z,28.60
2018-08-09T04:54:42.065Z,28.60
2018-08-09T04:57:10.485Z,28.60
2018-08-09T04:59:38.926Z,28.60
2018-08-09T05:02:07.500Z,28.60
2018-08-09T05:04:35.939Z,28.60
2018-08-09T05:15:40.485Z,28.60
2018-08-09T05:18:08.960Z,28.60
2018-08-09T05:20:37.401Z,28.60
2018-08-09T05:23:05.844Z,28.60
2018-08-09T05:25:34.309Z,28.60
2018-08-09T05:28:02.773Z,28.60
2018-08-09T05:30:31.229Z,28.60
2018-08-09T05:32:59.672Z,28.70
2018-08-09T05:35:28.102Z,28.70
2018-08-09T05:37:56.852Z,28.70
2018-08-09T05:40:25.302Z,28.70
2018-08-09T05:42:53.728Z,28.70
2018-08-09T05:45:22.202Z,28.70
2018-08-09T05:47:50.612Z,28.70
2018-08-09T05:50:19.051Z,28.80
2018-08-09T05:52:47.841Z,28.80
2018-08-09T05:55:16.205Z,28.80
2018-08-09T05:57:44.661Z,28.80
2018-08-09T06:00:13.257Z,28.80
2018-08-09T06:02:41.705Z,28.80
2018-08-09T06:05:10.165Z,28.90
2018-08-09T06:07:38.613Z,28.90
2018-08-09T06:10:08.073Z,28.90
2018-08-09T06:12:36.538Z,28.90
2018-08-09T06:15:05.537Z,28.90
2018-08-09T06:17:33.973Z,29.00
2018-08-09T06:20:02.428Z,29.00
2018-08-09T06:22:30.853Z,29.00
2018-08-09T06:24:59.309Z,29.00
2018-08-09T06:27:27.799Z,29.00
2018-08-09T06:29:56.256Z,29.00
2018-08-09T06:32:24.701Z,29.00
2018-08-09T06:34:53.121Z,29.00
2018-08-09T06:37:21.869Z,29.00
2018-08-09T06:39:50.341Z,29.00
2018-08-09T06:42:18.787Z,29.10
2018-08-09T06:44:47.318Z,29.10
2018-08-09T06:47:15.832Z,29.10
2018-08-09T06:49:44.273Z,29.10
2018-08-09T06:52:12.820Z,29.10
2018-08-09T07:00:23.466Z,29.30
2018-08-09T07:02:51.954Z,29.30
2018-08-09T07:05:20.379Z,29.20
2018-08-09T07:07:49.364Z,29.30
2018-08-09T07:10:17.912Z,29.30
2018-08-09T07:12:46.433Z,29.30
2018-08-09T07:15:15.033Z,29.40
2018-08-09T07:17:44.043Z,29.40
2018-08-09T07:20:13.187Z,29.40
2018-08-09T07:22:42.480Z,29.40
2018-08-09T07:25:11.026Z,29.40
2018-08-09T07:27:39.563Z,29.40
2018-08-09T07:30:09.877Z,29.50
2018-08-09T07:32:38.330Z,29.50
2018-08-09T07:35:07.137Z,29.50
2018-08-09T07:37:35.835Z,29.50
2018-08-09T07:40:06.171Z,29.50
2018-08-09T07:42:34.686Z,29.50
2018-08-09T07:45:03.255Z,29.60
2018-08-09T07:47:32.157Z,29.60
2018-08-09T07:50:01.464Z,29.60
2018-08-09T07:52:30.260Z,29.60
2018-08-09T07:54:59.530Z,29.60
2018-08-09T07:57:28.741Z,29.60
2018-08-09T07:59:57.877Z,29.60
2018-08-09T08:02:27.236Z,29.60
2018-08-09T08:04:56.360Z,29.60
2018-08-09T08:07:26.400Z,29.60
2018-08-09T08:09:54.855Z,29.60
2018-08-09T08:12:24.014Z,29.70
2018-08-09T08:14:53.419Z,29.70
2018-08-09T08:17:22.490Z,29.70
2018-08-09T08:19:51.613Z,29.60
2018-08-09T08:22:20.942Z,29.70
2018-08-09T08:24:49.957Z,29.70
2018-08-09T08:27:19.271Z,29.70
2018-08-09T08:29:48.799Z,29.70
2018-08-09T08:32:18.135Z,29.70
2018-08-09T08:34:47.346Z,29.70
2018-08-09T08:37:16.728Z,29.70
2018-08-09T08:39:46.017Z,29.70
2018-08-09T08:42:15.149Z,29.70
2018-08-09T08:44:44.465Z,29.70
2018-08-09T08:47:14.061Z,29.70
2018-08-09T08:49:43.122Z,29.70
2018-08-09T08:52:12.444Z,29.70
2018-08-09T08:54:41.485Z,29.80
2018-08-09T08:57:10.467Z,29.80
2018-08-09T08:59:39.687Z,29.80
2018-08-09T09:02:08.854Z,29.80
2018-08-09T09:04:38.059Z,29.80
2018-08-09T09:08:43.726Z,29.80
2018-08-09T09:11:13.101Z,29.80
2018-08-09T09:13:43.339Z,29.80
2018-08-09T09:16:12.968Z,29.80
2018-08-09T09:18:42.061Z,29.80
2018-08-09T09:21:11.340Z,29.80
2018-08-09T09:23:40.334Z,29.80
2018-08-09T09:26:09.435Z,29.80
2018-08-09T09:28:38.770Z,29.80
2018-08-09T09:31:08.024Z,29.80
2018-08-09T09:33:37.040Z,29.80
2018-08-09T09:36:06.242Z,29.80
2018-08-09T09:38:35.367Z,29.90
2018-08-09T09:41:06.258Z,29.80
2018-08-09T09:43:36.011Z,29.90
2018-08-09T09:46:05.177Z,29.90
2018-08-09T09:48:34.269Z,29.90
2018-08-09T09:51:05.872Z,29.90
2018-08-09T09:53:35.308Z,29.90
2018-08-09T09:56:04.696Z,29.90
2018-08-09T09:58:34.041Z,29.90
2018-08-09T10:01:08.565Z,29.90
2018-08-09T10:03:37.706Z,29.90
2018-08-09T10:06:07.154Z,29.90
2018-08-09T10:08:36.278Z,29.90
2018-08-09T10:11:05.265Z,29.90
2018-08-09T10:13:34.655Z,29.90
2018-08-09T10:16:03.758Z,30.00
2018-08-09T10:18:32.852Z,30.00
2018-08-09T10:21:01.940Z,30.00
2018-08-09T10:23:31.737Z,30.00
2018-08-09T10:26:00.848Z,30.00
2018-08-09T10:28:29.971Z,30.00
2018-08-09T10:30:59.343Z,30.00
2018-08-09T10:33:28.483Z,30.00
2018-08-09T10:36:00.024Z,30.00
2018-08-09T10:38:29.457Z,30.00
2018-08-09T10:40:58.914Z,30.00
2018-08-09T10:43:28.231Z,30.00
2018-08-09T10:45:57.640Z,30.10
2018-08-09T10:48:26.815Z,30.10
2018-08-09T10:50:56.029Z,30.00
2018-08-09T10:53:25.174Z,30.10
2018-08-09T10:56:12.748Z,30.10
2018-08-09T10:58:41.968Z,30.10
2018-08-09T11:01:11.050Z,30.10
2018-08-09T11:03:40.148Z,30.10
2018-08-09T11:06:09.258Z,30.10
2018-08-09T11:08:38.380Z,30.10
2018-08-09T11:11:14.810Z,30.10
2018-08-09T11:13:45.601Z,30.10
2018-08-09T11:16:15.418Z,30.10
2018-08-09T11:18:45.383Z,30.10
2018-08-09T11:21:14.342Z,30.10
2018-08-09T11:23:43.869Z,30.20
2018-08-09T11:26:13.311Z,30.20
2018-08-09T11:28:42.584Z,30.20
2018-08-09T11:31:11.712Z,30.20
2018-08-09T11:33:41.075Z,30.20
2018-08-09T11:36:10.305Z,30.20
2018-08-09T11:38:39.587Z,30.20
2018-08-09T11:41:08.900Z,30.20
2018-08-09T11:43:37.969Z,30.20
2018-08-09T11:46:07.401Z,30.20
2018-08-09T11:48:36.589Z,30.20
2018-08-09T11:51:05.726Z,30.20
2018-08-09T11:53:34.878Z,30.30
2018-08-09T11:56:04.153Z,30.30
2018-08-09T11:58:33.394Z,30.30
2018-08-09T12:01:03.169Z,30.30
2018-08-09T12:03:33.108Z,30.30
2018-08-09T12:06:02.351Z,30.30
2018-08-09T12:08:31.524Z,30.30
2018-08-09T12:11:00.766Z,30.30
2018-08-09T12:13:29.970Z,30.30
2018-08-09T12:15:59.124Z,30.30
2018-08-09T12:18:28.464Z,30.30
2018-08-09T12:20:57.781Z,30.30
2018-08-09T12:23:26.897Z,30.30
2018-08-09T12:25:56.152Z,30.30
2018-08-09T12:28:26.351Z,30.30
2018-08-09T12:30:58.092Z,30.40
2018-08-09T12:33:27.292Z,30.30
2018-08-09T12:35:56.500Z,30.40
2018-08-09T12:38:25.636Z,30.40
2018-08-09T12:40:54.866Z,30.40
2018-08-09T12:46:14.766Z,30.40
2018-08-09T12:48:44.674Z,30.40
2018-08-09T12:51:14.026Z,30.40
2018-08-09T12:53:43.212Z,30.40
2018-08-09T12:56:12.383Z,30.40
2018-08-09T12:58:41.609Z,30.40
2018-08-09T13:01:10.835Z,30.40
2018-08-09T13:03:40.224Z,30.40
2018-08-09T13:06:10.738Z,30.40
2018-08-09T13:08:40.216Z,30.40
2018-08-09T13:11:09.625Z,30.40
2018-08-09T13:13:39.054Z,30.40
2018-08-09T13:16:08.394Z,30.40
2018-08-09T13:18:37.503Z,30.40
2018-08-09T13:21:06.107Z,30.50
2018-08-09T13:23:35.416Z,30.40
2018-08-09T13:26:04.785Z,30.40
2018-08-09T13:28:34.290Z,30.40
2018-08-09T13:31:03.446Z,30.40
2018-08-09T13:33:32.924Z,30.50
2018-08-09T13:36:02.449Z,30.50
2018-08-09T13:38:31.728Z,30.40
2018-08-09T13:41:01.037Z,30.50
2018-08-09T13:43:30.489Z,30.50
2018-08-09T13:45:59.657Z,30.50
2018-08-09T13:48:28.799Z,30.50
2018-08-09T13:50:57.944Z,30.50
2018-08-09T13:53:27.160Z,30.50
2018-08-09T13:55:56.843Z,30.50
2018-08-09T13:58:26.167Z,30.50
2018-08-09T14:00:55.216Z,30.60
2018-08-09T14:03:23.660Z,30.60
2018-08-09T14:05:52.934Z,30.60
2018-08-09T14:08:22.110Z,30.70
2018-08-09T14:10:51.458Z,30.70
2018-08-09T14:13:20.547Z,30.70
2018-08-09T14:15:50.240Z,30.80
2018-08-09T14:18:19.591Z,30.80
2018-08-09T14:20:48.629Z,30.90
2018-08-09T14:23:17.703Z,31.00
2018-08-09T14:25:46.732Z,31.00
2018-08-09T14:28:17.019Z,31.10
2018-08-09T14:30:46.210Z,31.00
2018-08-09T14:33:15.598Z,31.00
2018-08-09T14:35:44.617Z,31.00
2018-08-09T14:38:14.674Z,31.00
2018-08-09T14:40:44.029Z,31.10
2018-08-09T14:43:13.282Z,31.10
2018-08-09T14:45:42.704Z,31.20
2018-08-09T14:48:11.942Z,31.20
2018-08-09T14:50:41.340Z,31.20
2018-08-09T14:53:10.523Z,31.20
2018-08-09T14:55:40.179Z,31.20
2018-08-09T14:58:10.482Z,31.20
2018-08-09T15:00:39.860Z,31.10
2018-08-09T15:03:09.096Z,31.20
2018-08-09T15:05:38.477Z,31.20
2018-08-09T15:08:07.729Z,31.20
2018-08-09T15:10:36.842Z,31.10
2018-08-09T15:13:06.207Z,31.20
2018-08-09T15:15:35.362Z,31.20
2018-08-09T15:18:04.927Z,31.10
2018-08-09T15:20:34.137Z,31.10
2018-08-09T15:23:03.439Z,31.20
2018-08-09T15:25:32.788Z,31.10
2018-08-09T15:28:01.781Z,31.10
2018-08-09T15:30:52.350Z,30.90
2018-08-09T15:33:21.447Z,30.80
2018-08-09T15:35:50.630Z,30.70
2018-08-09T15:38:20.000Z,30.60
2018-08-09T15:40:49.096Z,30.50
2018-08-09T15:43:18.470Z,30.50
2018-08-09T15:45:47.722Z,30.40
2018-08-09T15:48:17.065Z,30.30
2018-08-09T15:50:46.888Z,30.30
2018-08-09T15:53:29.732Z,30.20
2018-08-09T15:55:58.894Z,30.20
2018-08-09T15:58:28.093Z,30.20
2018-08-09T16:00:57.261Z,30.10
2018-08-09T16:03:26.578Z,30.10
2018-08-09T16:05:55.596Z,30.10
2018-08-09T16:08:24.111Z,30.10
2018-08-09T16:10:52.628Z,30.10
2018-08-09T16:13:21.258Z,30.10
2018-08-09T16:15:49.737Z,30.00
2018-08-09T16:18:18.292Z,30.00
2018-08-09T16:20:46.771Z,30.10
2018-08-09T16:23:15.388Z,30.00
2018-08-09T16:25:44.804Z,30.00
2018-08-09T16:28:13.268Z,30.00
2018-08-09T16:30:41.707Z,29.90
2018-08-09T16:33:10.182Z,29.90
2018-08-09T16:35:38.705Z,29.90
2018-08-09T16:38:07.228Z,29.90
2018-08-09T16:40:35.749Z,29.90
2018-08-09T16:43:04.394Z,29.90
2018-08-09T16:45:32.872Z,29.90
2018-08-09T16:48:01.306Z,29.80
2018-08-09T16:50:29.827Z,29.80
2018-08-09T16:52:58.259Z,29.80
2018-08-09T16:55:27.034Z,29.80
2018-08-09T16:57:55.510Z,29.80
2018-08-09T17:03:15.439Z,29.80
2018-08-09T17:05:43.845Z,29.80
2018-08-09T17:08:12.282Z,29.80
2018-08-09T17:10:40.703Z,29.80
2018-08-09T17:13:09.109Z,29.80
2018-08-09T17:15:37.573Z,29.70
2018-08-09T17:18:06.055Z,29.80
2018-08-09T17:20:34.636Z,29.70
2018-08-09T17:23:04.107Z,29.70
2018-08-09T17:25:32.782Z,29.70
2018-08-09T17:28:01.176Z,29.70
2018-08-09T17:30:29.990Z,29.70
2018-08-09T17:32:58.823Z,29.70
2018-08-09T17:35:27.460Z,29.70
2018-08-09T17:37:56.237Z,29.70
2018-08-09T17:40:29.396Z,29.70
2018-08-09T17:42:58.709Z,29.70
2018-08-09T17:45:28.645Z,29.60
2018-08-09T17:47:57.305Z,29.60
2018-08-09T17:50:25.784Z,29.60
2018-08-09T17:52:55.226Z,29.60
2018-08-09T17:55:23.667Z,29.60
2018-08-09T17:57:52.083Z,29.60
2018-08-09T18:00:23.814Z,29.60
2018-08-09T18:02:52.600Z,29.60
2018-08-09T18:05:21.180Z,29.60
2018-08-09T18:07:49.634Z,29.60
2018-08-09T18:10:30.990Z,29.60
2018-08-09T18:12:59.450Z,29.50
2018-08-09T18:15:29.050Z,29.50
2018-08-09T18:17:58.034Z,29.50
2018-08-09T18:20:30.542Z,29.50
2018-08-09T18:22:59.346Z,29.50
2018-08-09T18:25:28.181Z,29.50
2018-08-09T18:27:56.682Z,29.50
2018-08-09T18:30:25.166Z,29.50
2018-08-09T18:32:53.871Z,29.50
2018-08-09T18:35:22.252Z,29.40
2018-08-09T18:37:51.713Z,29.50
2018-08-09T18:40:23.532Z,29.40
2018-08-09T18:42:52.178Z,29.40
2018-08-09T18:45:21.285Z,29.40
2018-08-09T18:47:49.713Z,29.40
2018-08-09T18:50:20.798Z,29.40
2018-08-09T18:52:49.229Z,29.40
2018-08-09T18:55:18.603Z,29.40
2018-08-09T18:57:47.092Z,29.40
2018-08-09T19:00:19.140Z,29.40
2018-08-09T19:02:48.035Z,29.40
2018-08-09T19:05:16.717Z,29.40
2018-08-09T19:07:45.221Z,29.40
2018-08-09T19:10:19.009Z,29.40
2018-08-09T19:12:47.571Z,29.40
2018-08-09T19:15:15.974Z,29.40
2018-08-09T19:17:44.556Z,29.40
2018-08-09T19:20:32.624Z,29.30
2018-08-09T19:23:01.508Z,29.30
2018-08-09T19:25:30.149Z,29.30
2018-08-09T19:27:58.778Z,29.30
2018-08-09T19:30:28.579Z,29.30
2018-08-09T19:32:57.073Z,29.20
2018-08-09T19:35:25.624Z,29.20
2018-08-09T19:37:54.165Z,29.20
2018-08-09T19:40:24.462Z,29.30
2018-08-09T19:42:53.069Z,29.30
2018-08-09T19:45:21.617Z,29.30
2018-08-09T19:47:50.107Z,29.30
2018-08-09T19:50:20.042Z,29.30
2018-08-09T19:52:48.617Z,29.30
2018-08-09T19:55:18.929Z,29.30
2018-08-09T19:57:48.442Z,29.30
2018-08-09T20:00:21.399Z,29.30
2018-08-09T20:02:50.091Z,29.30
2018-08-09T20:05:18.530Z,29.30
2018-08-09T20:07:47.065Z,29.20
2018-08-09T20:10:15.868Z,29.30
2018-08-09T20:12:45.281Z,29.30
2018-08-09T20:15:16.304Z,29.30
2018-08-09T20:17:44.810Z,29.30
2018-08-09T20:20:15.654Z,29.30
2018-08-09T20:22:44.151Z,29.20
2018-08-09T20:25:13.436Z,29.30
2018-08-09T20:27:42.771Z,29.30
2018-08-09T20:30:13.120Z,29.30
2018-08-09T20:32:42.333Z,29.20
2018-08-09T20:35:16.199Z,29.20
2018-08-09T20:37:45.554Z,29.30
2018-08-09T20:40:14.822Z,29.20
2018-08-09T20:42:43.971Z,29.20
2018-08-09T20:45:13.960Z,29.20
2018-08-09T20:47:42.546Z,29.20
2018-08-09T20:50:13.824Z,29.20
2018-08-09T20:52:43.105Z,29.20
2018-08-09T20:55:12.179Z,29.20
2018-08-09T20:57:41.705Z,29.20
2018-08-09T21:00:13.871Z,29.20
2018-08-09T21:02:42.912Z,29.20
2018-08-09T21:05:17.101Z,29.20
2018-08-09T21:07:46.047Z,29.20
2018-08-09T21:10:14.862Z,29.20
2018-08-09T21:12:43.662Z,29.20
2018-08-09T21:15:12.235Z,29.20
2018-08-09T21:17:40.938Z,29.20
2018-08-09T21:20:09.378Z,29.20
2018-08-09T21:22:39.452Z,29.20
2018-08-09T21:25:08.950Z,29.20
2018-08-09T21:27:37.633Z,29.20
2018-08-09T21:30:07.031Z,29.20
2018-08-09T21:32:35.836Z,29.20
2018-08-09T21:35:04.622Z,29.20
2018-08-09T21:37:33.052Z,29.20
2018-08-09T21:40:01.482Z,29.20
2018-08-09T21:42:29.917Z,29.10
2018-08-09T21:44:58.414Z,29.20
2018-08-09T21:47:26.856Z,29.20
2018-08-09T21:49:55.445Z,29.20
2018-08-09T21:52:23.895Z,29.20
2018-08-09T21:54:52.328Z,29.20
2018-08-09T21:57:20.779Z,29.10
2018-08-09T21:59:49.255Z,29.20
2018-08-09T22:02:17.697Z,29.20
2018-08-09T22:04:53.650Z,29.10
2018-08-09T22:07:27.493Z,29.20
2018-08-09T22:10:01.390Z,29.10
2018-08-09T22:12:35.282Z,29.10
2018-08-09T22:15:09.869Z,29.10
2018-08-09T22:17:43.694Z,29.10
2018-08-09T22:20:17.416Z,29.10
2018-08-09T22:22:45.887Z,29.10
2018-08-09T22:25:14.326Z,29.10
2018-08-09T22:27:42.753Z,29.10
2018-08-09T22:30:14.432Z,29.10
2018-08-09T22:32:42.888Z,29.10
2018-08-09T22:35:11.386Z,29.10
2018-08-09T22:37:39.952Z,29.10
2018-08-09T22:40:08.517Z,29.10
2018-08-09T22:42:36.956Z,29.10
2018-08-09T22:45:05.620Z,29.10
2018-08-09T22:47:34.066Z,29.10
2018-08-09T22:50:02.497Z,29.10
2018-08-09T22:52:30.934Z,29.10
2018-08-09T22:54:59.381Z,29.10
2018-08-09T22:57:27.977Z,29.10
2018-08-09T22:59:56.405Z,29.10
2018-08-09T23:02:24.830Z,29.10
2018-08-09T23:04:53.259Z,29.10
2018-08-09T23:07:21.939Z,29.10
2018-08-09T23:09:50.481Z,29.10
2018-08-09T23:12:18.901Z,29.10
2018-08-09T23:14:47.327Z,29.10
2018-08-09T23:17:15.742Z,29.10
2018-08-09T23:19:44.181Z,29.10
2018-08-09T23:22:16.419Z,29.10
2018-08-09T23:24:44.887Z,29.10
2018-08-09T23:27:13.361Z,29.10
2018-08-09T23:29:41.779Z,29.00
2018-08-09T23:35:01.151Z,29.10
2018-08-09T23:37:29.775Z,29.00
2018-08-09T23:39:58.221Z,29.00
2018-08-09T23:42:26.658Z,29.00
2018-08-09T23:44:55.213Z,29.00
2018-08-09T23:47:23.665Z,29.00
2018-08-09T23:49:52.097Z,29.00
2018-08-09T23:52:20.542Z,29.00
2018-08-09T23:54:49.037Z,29.00
2018-08-09T23:57:17.469Z,29.00
2018-08-09T23:59:45.930Z,29.00
